Time;durP1;ratioP1;P1;durP2;ratioP2;P2;SDS_P1;SDS_P2;PMS_P1;PMS_P2;Temp;Humidity;BMP_temperature;BMP_pressure;BME280_temperature;BME280_humidity;BME280_pressure;Samples;Min_cycle;Max_cycle;Signal;HPM_P1;HPM_P2
2023/11/19 00:01:26;;;;;;;58.53;7.40;;;;;;;10.74;100.00;99767.75;5033411;28;20017;-89
2023/11/19 00:03:51;;;;;;;37.05;6.10;;;;;;;10.75;100.00;99768.56;5033367;28;20037;-88
2023/11/19 00:06:16;;;;;;;36.00;6.25;;;;;;;10.72;100.00;99767.03;5033171;28;20021;-88
2023/11/19 00:08:43;;;;;;;40.60;6.20;;;;;;;10.70;100.00;99777.47;5033572;28;20025;-88
2023/11/19 00:11:09;;;;;;;38.88;5.95;;;;;;;10.81;100.00;99774.13;5033639;28;20424;-88
2023/11/19 00:13:34;;;;;;;35.47;7.93;;;;;;;10.76;100.00;99780.56;5033063;28;20031;-88
2023/11/19 00:15:59;;;;;;;45.10;7.60;;;;;;;10.64;100.00;99771.91;5033348;28;20470;-88
2023/11/19 00:18:25;;;;;;;40.00;7.13;;;;;;;10.68;100.00;99771.59;5033606;28;20104;-88
2023/11/19 00:20:50;;;;;;;45.72;6.85;;;;;;;10.68;100.00;99757.81;5031375;28;20021;-88
2023/11/19 00:23:16;;;;;;;41.55;7.45;;;;;;;10.68;100.00;99761.25;5033194;28;20479;-88
2023/11/19 00:25:41;;;;;;;43.17;6.82;;;;;;;10.78;100.00;99758.03;5033363;28;20487;-88
2023/11/19 00:28:06;;;;;;;49.20;6.68;;;;;;;10.73;100.00;99750.63;5033069;28;20079;-88
2023/11/19 00:30:32;;;;;;;50.05;6.32;;;;;;;10.72;100.00;99743.78;5033121;28;20026;-88
2023/11/19 00:32:57;;;;;;;31.13;5.95;;;;;;;10.81;100.00;99738.00;5032869;28;20044;-88
2023/11/19 00:35:22;;;;;;;35.85;6.93;;;;;;;10.70;100.00;99738.75;5032241;28;20076;-88
2023/11/19 00:37:48;;;;;;;36.08;6.25;;;;;;;10.72;100.00;99733.47;5032813;28;20183;-88
2023/11/19 00:40:15;;;;;;;33.83;6.78;;;;;;;10.67;100.00;99736.38;5032948;28;20483;-88
2023/11/19 00:42:41;;;;;;;46.10;7.05;;;;;;;10.66;100.00;99736.50;5031454;28;20036;-88
2023/11/19 00:45:10;;;;;;;41.80;7.35;;;;;;;10.60;100.00;99735.13;5032739;28;20029;-88
2023/11/19 00:47:35;;;;;;;42.88;7.85;;;;;;;10.66;100.00;99744.22;5032632;28;20036;-88
2023/11/19 00:50:01;;;;;;;38.33;5.55;;;;;;;10.76;100.00;99734.09;5032459;28;20029;-88
2023/11/19 00:52:27;;;;;;;41.63;7.22;;;;;;;10.71;100.00;99732.66;5032268;28;20047;-88
2023/11/19 00:54:52;;;;;;;38.47;5.97;;;;;;;10.62;100.00;99737.63;5032344;28;20112;-88
2023/11/19 00:57:17;;;;;;;42.20;6.63;;;;;;;10.57;100.00;99735.34;5032479;28;20036;-88
2023/11/19 00:59:43;;;;;;;47.65;7.70;;;;;;;10.65;100.00;99733.06;5032643;28;20022;-88
2023/11/19 01:02:08;;;;;;;44.75;6.45;;;;;;;10.53;100.00;99723.59;5031094;28;20037;-88
2023/11/19 01:04:38;;;;;;;43.45;6.43;;;;;;;10.59;100.00;99712.84;5032314;28;20029;-88
2023/11/19 01:07:04;;;;;;;45.95;7.32;;;;;;;10.54;100.00;99717.50;5031557;28;20490;-88
2023/11/19 01:09:34;;;;;;;48.95;8.38;;;;;;;10.56;100.00;99715.66;5032313;28;20480;-88
2023/11/19 01:12:00;;;;;;;51.20;6.80;;;;;;;10.53;100.00;99710.69;5032190;28;20460;-88
2023/11/19 01:14:26;;;;;;;45.03;9.30;;;;;;;10.49;100.00;99701.53;5032048;28;20072;-88
2023/11/19 01:16:53;;;;;;;49.40;7.38;;;;;;;10.48;100.00;99698.13;5032149;28;20399;-88
2023/11/19 01:19:19;;;;;;;41.63;6.07;;;;;;;10.54;100.00;99703.78;5032139;28;20022;-88
2023/11/19 01:21:44;;;;;;;46.50;7.55;;;;;;;10.47;100.00;99711.94;5031588;28;20018;-88
2023/11/19 01:24:09;;;;;;;39.35;7.72;;;;;;;10.43;100.00;99712.25;5031865;28;20018;-88
2023/11/19 01:26:35;;;;;;;48.47;6.30;;;;;;;10.40;100.00;99712.47;5031716;28;20464;-88
2023/11/19 01:29:01;;;;;;;47.17;7.18;;;;;;;10.40;100.00;99718.44;5032124;28;20061;-88
2023/11/19 01:31:26;;;;;;;42.05;6.45;;;;;;;10.35;100.00;99704.22;5031524;28;20014;-88
2023/11/19 01:33:51;;;;;;;37.20;5.70;;;;;;;10.38;100.00;99712.56;5031677;28;20033;-88
2023/11/19 01:36:17;;;;;;;48.38;7.10;;;;;;;10.39;100.00;99710.84;5031362;28;20035;-88
2023/11/19 01:38:42;;;;;;;36.38;6.88;;;;;;;10.48;100.00;99725.66;5030401;28;20471;-88
2023/11/19 01:41:08;;;;;;;43.50;7.97;;;;;;;10.47;100.00;99705.97;5030468;28;20022;-87
2023/11/19 01:43:38;;;;;;;47.45;7.32;;;;;;;10.49;100.00;99709.25;5031676;28;20438;-88
2023/11/19 01:46:06;;;;;;;34.75;6.50;;;;;;;10.42;100.00;99703.69;5031796;28;20112;-88
2023/11/19 01:48:33;;;;;;;45.60;7.45;;;;;;;10.43;100.00;99691.63;5031765;28;20079;-88
2023/11/19 01:50:59;;;;;;;34.13;5.50;;;;;;;10.43;100.00;99682.09;5030941;28;20021;-88
2023/11/19 01:53:26;;;;;;;44.72;6.82;;;;;;;10.45;100.00;99694.91;5031287;28;20500;-88
2023/11/19 01:55:52;;;;;;;32.53;4.88;;;;;;;10.46;100.00;99694.81;5031437;28;20033;-88
2023/11/19 01:58:18;;;;;;;42.72;6.05;;;;;;;10.52;100.00;99680.66;5031764;28;20428;-88
2023/11/19 02:00:44;;;;;;;43.70;6.47;;;;;;;10.41;100.00;99689.16;5031620;28;20084;-88
2023/11/19 02:03:11;;;;;;;35.88;6.32;;;;;;;10.43;100.00;99671.78;5031232;28;20033;-88
2023/11/19 02:05:37;;;;;;;39.15;6.53;;;;;;;10.44;100.00;99678.63;5030897;28;20025;-88
2023/11/19 02:08:03;;;;;;;34.83;5.60;;;;;;;10.41;100.00;99667.66;5031379;28;20029;-88
2023/11/19 02:10:28;;;;;;;42.15;8.48;;;;;;;10.33;100.00;99669.97;5031588;28;20025;-88
2023/11/19 02:12:55;;;;;;;41.67;5.88;;;;;;;10.30;100.00;99675.34;5031547;28;20029;-88
2023/11/19 02:15:21;;;;;;;38.92;8.10;;;;;;;10.36;100.00;99683.47;5031390;28;20030;-88
2023/11/19 02:17:47;;;;;;;33.17;5.90;;;;;;;10.42;100.00;99689.97;5031543;28;20049;-88
2023/11/19 02:20:14;;;;;;;36.58;8.18;;;;;;;10.47;100.00;99682.75;5030503;28;20053;-88
2023/11/19 02:22:40;;;;;;;40.90;5.55;;;;;;;10.43;100.00;99681.28;5029887;28;20029;-88
2023/11/19 02:25:16;;;;;;;34.58;4.80;;;;;;;10.42;100.00;99685.63;5031273;28;20029;-88
2023/11/19 02:27:42;;;;;;;39.97;5.78;;;;;;;10.42;100.00;99692.56;5031323;28;20388;-88
2023/11/19 02:30:08;;;;;;;43.63;6.68;;;;;;;10.46;100.00;99686.22;5031173;28;20036;-88
2023/11/19 02:32:35;;;;;;;52.72;9.90;;;;;;;10.43;100.00;99691.63;5031275;28;20025;-88
2023/11/19 02:35:01;;;;;;;35.45;5.78;;;;;;;10.57;100.00;99685.50;5030419;28;20029;-88
2023/11/19 02:37:28;;;;;;;34.10;5.18;;;;;;;10.48;100.00;99685.22;5029954;28;20075;-88
2023/11/19 02:39:53;;;;;;;33.30;5.55;;;;;;;10.44;100.00;99676.03;5031229;28;20025;-88
2023/11/19 02:42:19;;;;;;;38.10;6.15;;;;;;;10.50;100.00;99678.19;5031497;28;20529;-88
2023/11/19 02:44:45;;;;;;;43.60;5.40;;;;;;;10.44;100.00;99682.97;5034097;28;20471;-88
2023/11/19 02:47:11;;;;;;;42.63;5.57;;;;;;;10.60;100.00;99691.25;5034945;28;20034;-88
2023/11/19 02:49:37;;;;;;;37.78;6.75;;;;;;;10.63;100.00;99688.50;5032888;28;20052;-88
2023/11/19 02:52:05;;;;;;;35.40;6.70;;;;;;;10.52;100.00;99688.41;5034696;28;20029;-88
2023/11/19 02:54:34;;;;;;;36.38;7.60;;;;;;;10.66;100.00;99692.63;5034632;28;20025;-88
2023/11/19 02:57:01;;;;;;;36.63;5.45;;;;;;;10.47;100.00;99693.88;5034650;28;20018;-88
2023/11/19 02:59:27;;;;;;;38.88;5.93;;;;;;;10.51;100.00;99684.19;5034599;28;20480;-88
2023/11/19 03:01:54;;;;;;;34.58;4.88;;;;;;;10.43;100.00;99687.28;5034626;28;20033;-88
2023/11/19 03:04:20;;;;;;;29.55;5.85;;;;;;;10.50;100.00;99687.69;5033776;28;20075;-88
2023/11/19 03:06:46;;;;;;;32.17;5.28;;;;;;;10.52;100.00;99680.66;5034607;28;20108;-88
2023/11/19 03:09:12;;;;;;;34.35;5.43;;;;;;;10.44;100.00;99682.97;5034630;28;20472;-88
2023/11/19 03:11:37;;;;;;;34.78;5.32;;;;;;;10.35;100.00;99661.19;5034437;28;20026;-88
2023/11/19 03:14:03;;;;;;;35.65;5.85;;;;;;;10.28;100.00;99659.97;5034287;28;20021;-88
2023/11/19 03:16:28;;;;;;;31.33;6.00;;;;;;;10.30;100.00;99654.72;5034482;28;20100;-88
2023/11/19 03:18:54;;;;;;;32.83;6.13;;;;;;;10.38;100.00;99648.06;5034154;28;20022;-88
2023/11/19 03:21:27;;;;;;;42.40;6.15;;;;;;;10.45;100.00;99661.38;5033561;28;20029;-88
2023/11/19 03:23:53;;;;;;;40.67;5.70;;;;;;;10.40;100.00;99645.41;5034200;28;20151;-88
2023/11/19 03:26:18;;;;;;;25.52;4.63;;;;;;;10.44;100.00;99650.25;5034340;28;20108;-88
2023/11/19 03:28:43;;;;;;;39.25;5.03;;;;;;;10.42;100.00;99653.84;5034119;28;20075;-88
2023/11/19 03:31:09;;;;;;;47.17;6.50;;;;;;;10.33;100.00;99646.75;5034182;28;20021;-88
2023/11/19 03:33:34;;;;;;;32.45;6.03;;;;;;;10.41;100.00;99662.50;5033718;28;20022;-88
2023/11/19 03:35:59;;;;;;;33.95;5.35;;;;;;;10.45;100.00;99653.63;5033413;28;20021;-88
2023/11/19 03:38:25;;;;;;;30.92;4.90;;;;;;;10.40;100.00;99650.56;5032766;28;20032;-88
2023/11/19 03:40:50;;;;;;;38.55;6.22;;;;;;;10.43;100.00;99655.50;5033949;28;20021;-88
2023/11/19 03:43:15;;;;;;;36.83;5.40;;;;;;;10.62;100.00;99666.19;5033832;28;20029;-88
2023/11/19 03:45:41;;;;;;;41.03;5.78;;;;;;;10.55;100.00;99657.22;5033906;28;20052;-88
2023/11/19 03:48:06;;;;;;;29.58;5.25;;;;;;;10.52;100.00;99651.47;5033563;28;20419;-88
2023/11/19 03:50:31;;;;;;;41.90;6.55;;;;;;;10.45;100.00;99643.31;5033207;28;20483;-88
2023/11/19 03:52:57;;;;;;;35.20;5.80;;;;;;;10.48;100.00;99643.09;5033640;28;20472;-88
2023/11/19 03:55:22;;;;;;;29.85;6.07;;;;;;;10.36;100.00;99646.53;5033236;28;20479;-88
2023/11/19 03:57:48;;;;;;;29.48;6.05;;;;;;;10.39;100.00;99649.75;5033615;28;20021;-88
2023/11/19 04:00:14;;;;;;;42.03;6.57;;;;;;;10.40;100.00;99650.56;5033659;28;20053;-88
2023/11/19 04:02:40;;;;;;;42.55;5.85;;;;;;;10.33;100.00;99654.50;5033566;28;20052;-88
2023/11/19 04:05:06;;;;;;;37.70;5.93;;;;;;;10.40;100.00;99674.59;5032715;28;20499;-88
2023/11/19 04:07:32;;;;;;;43.58;8.73;;;;;;;10.39;100.00;99685.03;5033496;28;20035;-88
2023/11/19 04:09:58;;;;;;;36.45;5.05;;;;;;;10.36;100.00;99700.69;5033204;28;20027;-88
2023/11/19 04:12:23;;;;;;;34.10;5.13;;;;;;;10.19;100.00;99687.19;5033730;28;20105;-88
2023/11/19 04:14:49;;;;;;;42.08;5.82;;;;;;;10.13;100.00;99708.22;5033418;28;20025;-88
2023/11/19 04:17:14;;;;;;;25.35;4.28;;;;;;;10.15;100.00;99688.31;5033114;28;20026;-87
2023/11/19 04:19:41;;;;;;;30.67;4.20;;;;;;;10.06;100.00;99669.13;5032760;28;20021;-87
2023/11/19 04:22:08;;;;;;;28.88;4.68;;;;;;;10.03;100.00;99671.09;5033257;28;20018;-88
2023/11/19 04:24:34;;;;;;;30.30;4.90;;;;;;;9.88;100.00;99685.03;5033168;28;20489;-88
2023/11/19 04:26:59;;;;;;;20.75;3.15;;;;;;;9.89;100.00;99682.31;5033134;28;20022;-87
2023/11/19 04:29:25;;;;;;;24.23;4.07;;;;;;;9.84;100.00;99674.88;5033530;28;20072;-87
2023/11/19 04:31:50;;;;;;;29.15;4.15;;;;;;;9.85;100.00;99673.97;5033289;28;20025;-88
2023/11/19 04:34:15;;;;;;;27.55;4.90;;;;;;;9.85;100.00;99668.81;5032416;28;20487;-87
2023/11/19 04:36:41;;;;;;;24.77;3.60;;;;;;;9.84;100.00;99662.00;5033049;28;20514;-87
2023/11/19 04:39:14;;;;;;;23.92;4.40;;;;;;;9.89;100.00;99653.16;5032801;28;20463;-87
2023/11/19 04:41:49;;;;;;;27.80;3.97;;;;;;;10.02;100.00;99656.53;5033121;28;20029;-88
2023/11/19 04:44:16;;;;;;;34.97;5.55;;;;;;;9.92;100.00;99650.34;5032605;28;20053;-88
2023/11/19 04:46:43;;;;;;;27.92;4.05;;;;;;;9.85;100.00;99650.78;5032790;28;20017;-88
2023/11/19 04:49:10;;;;;;;19.50;3.20;;;;;;;9.99;100.00;99659.31;5032206;28;20022;-87
2023/11/19 04:51:43;;;;;;;21.45;3.70;;;;;;;9.96;100.00;99677.59;5032879;28;20068;-87
2023/11/19 04:54:09;;;;;;;21.00;3.83;;;;;;;9.92;100.00;99660.66;5032261;28;20144;-88
2023/11/19 04:56:38;;;;;;;37.95;5.13;;;;;;;9.97;100.00;99653.44;5032493;28;20071;-88
2023/11/19 04:59:05;;;;;;;31.33;5.32;;;;;;;9.98;100.00;99662.84;5032334;28;20084;-88
2023/11/19 05:01:31;;;;;;;27.85;3.92;;;;;;;10.03;100.00;99653.88;5032573;28;20021;-87
2023/11/19 05:03:59;;;;;;;30.30;4.85;;;;;;;9.88;100.00;99648.94;5031792;28;20476;-88
2023/11/19 05:06:26;;;;;;;43.88;6.25;;;;;;;9.98;100.00;99644.81;5032027;28;20586;-87
2023/11/19 05:08:52;;;;;;;26.05;5.20;;;;;;;9.90;100.00;99631.59;5032523;28;20029;-87
2023/11/19 05:11:19;;;;;;;29.83;5.22;;;;;;;9.76;100.00;99628.19;5032346;28;20022;-88
2023/11/19 05:13:45;;;;;;;33.80;4.88;;;;;;;9.89;100.00;99635.09;5032463;28;20036;-88
2023/11/19 05:16:13;;;;;;;37.92;4.22;;;;;;;9.88;100.00;99625.75;5032267;28;20026;-88
2023/11/19 05:18:39;;;;;;;29.98;5.63;;;;;;;9.79;100.00;99620.25;5031492;28;20033;-88
2023/11/19 05:21:05;;;;;;;35.67;4.97;;;;;;;9.82;100.00;99632.13;5032300;28;20026;-88
2023/11/19 05:23:30;;;;;;;39.65;5.38;;;;;;;9.70;100.00;99633.75;5032067;28;20112;-88
2023/11/19 05:25:55;;;;;;;39.67;5.63;;;;;;;9.73;100.00;99625.00;5032100;28;20472;-88
2023/11/19 05:28:21;;;;;;;31.48;4.57;;;;;;;9.70;100.00;99617.47;5032121;28;20049;-88
2023/11/19 05:30:46;;;;;;;30.80;4.95;;;;;;;9.65;100.00;99612.63;5032139;28;20108;-88
2023/11/19 05:33:11;;;;;;;37.45;5.57;;;;;;;9.63;100.00;99610.16;5031242;28;20052;-87
2023/11/19 05:35:37;;;;;;;36.67;7.38;;;;;;;9.78;100.00;99623.78;5031463;28;20111;-88
2023/11/19 05:38:02;;;;;;;33.25;5.13;;;;;;;9.71;100.00;99627.69;5031961;28;20026;-88
2023/11/19 05:40:27;;;;;;;33.90;5.80;;;;;;;9.90;100.00;99626.44;5030736;28;20051;-88
2023/11/19 05:42:53;;;;;;;29.25;4.80;;;;;;;9.79;100.00;99632.31;5031699;28;20021;-88
2023/11/19 05:45:18;;;;;;;33.58;4.82;;;;;;;9.76;100.00;99627.38;5031736;28;20033;-88
2023/11/19 05:47:44;;;;;;;34.17;5.00;;;;;;;9.76;100.00;99625.63;5031553;28;20036;-88
2023/11/19 05:50:10;;;;;;;39.90;5.97;;;;;;;9.75;100.00;99623.97;5030804;28;20030;-88
2023/11/19 05:52:35;;;;;;;30.35;5.20;;;;;;;9.90;100.00;99616.97;5030405;28;20021;-88
2023/11/19 05:55:04;;;;;;;34.97;5.03;;;;;;;9.83;100.00;99626.88;5031882;28;20481;-88
2023/11/19 05:57:29;;;;;;;29.10;8.32;;;;;;;9.89;100.00;99609.34;5031549;28;20029;-88
2023/11/19 05:59:54;;;;;;;37.40;7.10;;;;;;;9.89;100.00;99609.34;5031583;28;20028;-88
2023/11/19 06:02:20;;;;;;;36.20;5.28;;;;;;;9.83;100.00;99628.63;5031688;28;20422;-88
2023/11/19 06:04:47;;;;;;;28.10;4.57;;;;;;;9.89;100.00;99609.34;5030993;28;20048;-87
2023/11/19 06:07:13;;;;;;;35.13;4.85;;;;;;;9.94;100.00;99627.88;5031467;28;20104;-88
2023/11/19 06:09:39;;;;;;;37.35;5.47;;;;;;;9.89;100.00;99614.50;5031537;28;20446;-88
2023/11/19 06:12:06;;;;;;;24.10;4.68;;;;;;;10.15;100.00;99634.16;5031444;28;20037;-88
2023/11/19 06:14:31;;;;;;;32.90;5.13;;;;;;;10.07;100.00;99633.84;5031319;28;20029;-88
2023/11/19 06:16:57;;;;;;;35.75;5.63;;;;;;;10.16;100.00;99625.47;5032090;28;20030;-88
2023/11/19 06:19:24;;;;;;;29.38;5.72;;;;;;;10.13;100.00;99643.75;5034816;28;20030;-88
2023/11/19 06:21:49;;;;;;;31.88;4.93;;;;;;;10.06;100.00;99650.25;5035366;28;20032;-88
2023/11/19 06:24:15;;;;;;;29.15;5.15;;;;;;;10.18;100.00;99641.69;5035141;28;20029;-87
2023/11/19 06:26:40;;;;;;;29.27;5.72;;;;;;;10.11;100.00;99649.94;5035419;28;20030;-88
2023/11/19 06:29:05;;;;;;;26.30;4.65;;;;;;;10.19;100.00;99657.97;5035556;28;20034;-88
2023/11/19 06:31:31;;;;;;;32.33;6.07;;;;;;;10.17;100.00;99645.19;5035489;28;20025;-88
2023/11/19 06:33:56;;;;;;;29.92;5.25;;;;;;;10.17;100.00;99655.53;5034199;28;20029;-88
2023/11/19 06:36:22;;;;;;;40.55;5.70;;;;;;;10.22;100.00;99657.78;5035099;28;20041;-88
2023/11/19 06:38:47;;;;;;;27.90;4.70;;;;;;;10.20;100.00;99655.31;5035151;28;20025;-87
2023/11/19 06:41:12;;;;;;;22.67;4.35;;;;;;;10.10;100.00;99651.72;5035029;28;20034;-88
2023/11/19 06:43:38;;;;;;;27.10;4.78;;;;;;;10.00;100.00;99658.41;5034780;28;20048;-88
2023/11/19 06:46:05;;;;;;;36.72;5.30;;;;;;;10.01;100.00;99650.56;5034683;28;20494;-88
2023/11/19 06:48:34;;;;;;;34.38;5.55;;;;;;;10.01;100.00;99657.47;5034348;28;20025;-87
2023/11/19 06:51:00;;;;;;;21.00;4.13;;;;;;;10.09;100.00;99650.03;5033762;28;20443;-87
2023/11/19 06:53:27;;;;;;;24.60;4.25;;;;;;;10.15;100.00;99646.25;5034518;28;20062;-87
2023/11/19 06:55:53;;;;;;;26.58;3.75;;;;;;;10.06;100.00;99642.53;5034721;28;20112;-87
2023/11/19 06:58:19;;;;;;;36.47;6.32;;;;;;;9.98;100.00;99643.03;5034811;28;20108;-88
2023/11/19 07:00:45;;;;;;;21.55;3.30;;;;;;;10.14;100.00;99647.16;5034755;28;20528;-87
2023/11/19 07:03:11;;;;;;;20.17;3.58;;;;;;;10.02;100.00;99641.91;5033884;28;20388;-87
2023/11/19 07:05:38;;;;;;;24.83;3.90;;;;;;;10.05;100.00;99641.69;5033431;28;20033;-87
2023/11/19 07:08:04;;;;;;;25.08;3.60;;;;;;;10.18;100.00;99652.00;5035167;28;20033;-87
2023/11/19 07:10:29;;;;;;;22.05;3.45;;;;;;;10.16;100.00;99647.88;5034630;28;20030;-88
2023/11/19 07:12:55;;;;;;;22.13;3.63;;;;;;;10.12;100.00;99652.44;5034488;28;20013;-87
2023/11/19 07:15:21;;;;;;;20.02;4.00;;;;;;;10.18;100.00;99641.69;5034395;28;20033;-88
2023/11/19 07:17:48;;;;;;;24.17;3.97;;;;;;;10.06;100.00;99642.53;5033703;28;20032;-88
2023/11/19 07:20:15;;;;;;;29.17;4.60;;;;;;;10.10;100.00;99641.38;5034797;28;20029;-88
2023/11/19 07:22:45;;;;;;;15.05;2.85;;;;;;;10.21;100.00;99648.38;5034269;28;20088;-88
2023/11/19 07:25:13;;;;;;;31.52;4.60;;;;;;;10.15;100.00;99651.41;5034109;28;20107;-88
2023/11/19 07:27:38;;;;;;;17.77;2.58;;;;;;;10.18;100.00;99664.06;5034225;28;20084;-88
2023/11/19 07:30:07;;;;;;;33.22;4.40;;;;;;;10.12;100.00;99673.06;5033675;28;20411;-87
2023/11/19 07:32:32;;;;;;;36.78;4.68;;;;;;;10.15;100.00;99688.31;5033591;28;20029;-87
2023/11/19 07:34:58;;;;;;;20.48;4.00;;;;;;;10.16;100.00;99695.09;5033791;28;20113;-87
2023/11/19 07:37:23;;;;;;;35.38;4.57;;;;;;;9.99;100.00;99692.84;5033990;28;20034;-87
2023/11/19 07:39:48;;;;;;;34.05;5.25;;;;;;;9.90;100.00;99683.13;5033983;28;20030;-88
2023/11/19 07:42:14;;;;;;;32.85;6.40;;;;;;;9.86;100.00;99673.03;5033903;28;20026;-87
2023/11/19 07:44:39;;;;;;;26.45;3.65;;;;;;;9.79;100.00;99681.28;5033766;28;20029;-88
2023/11/19 07:47:04;;;;;;;27.85;4.43;;;;;;;9.77;100.00;99683.97;5033976;28;20017;-87
2023/11/19 07:49:30;;;;;;;31.30;5.13;;;;;;;9.72;100.00;99672.31;5032986;28;20076;-87
2023/11/19 07:51:56;;;;;;;33.90;4.68;;;;;;;9.82;100.00;99669.00;5033755;28;20021;-88
2023/11/19 07:54:21;;;;;;;30.67;4.50;;;;;;;9.81;100.00;99675.09;5033350;28;20034;-88
2023/11/19 07:56:47;;;;;;;27.42;4.63;;;;;;;9.81;100.00;99671.72;5033568;28;20464;-88
2023/11/19 07:59:12;;;;;;;31.63;5.22;;;;;;;9.81;100.00;99672.53;5033742;28;20437;-87
2023/11/19 08:01:37;;;;;;;29.05;4.25;;;;;;;9.84;100.00;99669.75;5033614;28;20030;-88
2023/11/19 08:04:03;;;;;;;25.80;3.50;;;;;;;9.85;100.00;99666.25;5033022;28;20043;-87
2023/11/19 08:06:28;;;;;;;26.60;4.47;;;;;;;9.94;100.00;99675.09;5033680;28;20037;-88
2023/11/19 08:08:54;;;;;;;22.73;3.72;;;;;;;10.00;100.00;99674.72;5033419;28;20268;-88
2023/11/19 08:11:19;;;;;;;25.00;4.25;;;;;;;9.96;100.00;99668.09;5033402;28;20155;-88
2023/11/19 08:13:45;;;;;;;35.83;4.53;;;;;;;10.01;100.00;99665.22;5033345;28;20056;-87
2023/11/19 08:16:10;;;;;;;31.42;4.10;;;;;;;10.01;100.00;99670.38;5033189;28;20033;-87
2023/11/19 08:18:36;;;;;;;29.75;4.28;;;;;;;9.98;100.00;99660.28;5032892;28;20030;-88
2023/11/19 08:21:04;;;;;;;23.45;3.80;;;;;;;10.05;100.00;99656.34;5033138;28;20029;-87
2023/11/19 08:23:30;;;;;;;24.58;3.72;;;;;;;10.13;100.00;99648.91;5033205;28;20017;-88
2023/11/19 08:25:55;;;;;;;31.17;4.10;;;;;;;10.19;100.00;99656.25;5033086;28;20490;-88
2023/11/19 08:28:20;;;;;;;27.90;4.38;;;;;;;10.32;100.00;99658.00;5033470;28;20029;-88
2023/11/19 08:30:46;;;;;;;36.15;5.78;;;;;;;10.41;100.00;99653.03;5033167;28;20022;-87
2023/11/19 08:33:12;;;;;;;31.30;5.20;;;;;;;10.40;100.00;99660.88;5032765;28;20022;-88
2023/11/19 08:35:37;;;;;;;31.13;4.97;;;;;;;10.43;100.00;99655.50;5033071;28;20029;-87
2023/11/19 08:38:02;;;;;;;37.28;5.65;;;;;;;10.42;100.00;99659.03;5032909;28;20030;-88
2023/11/19 08:40:29;;;;;;;27.15;4.13;;;;;;;10.42;100.00;99654.69;5032230;28;20274;-87
2023/11/19 08:42:55;;;;;;;30.77;4.93;;;;;;;10.38;100.00;99657.56;5032478;28;20033;-88
2023/11/19 08:45:21;;;;;;;31.45;5.78;;;;;;;10.38;100.00;99648.06;5032740;28;20071;-88
2023/11/19 08:47:46;;;;;;;40.72;6.65;;;;;;;10.45;100.00;99649.28;5032016;28;20033;-88
2023/11/19 08:50:12;;;;;;;28.83;4.95;;;;;;;10.40;100.00;99653.13;5032944;28;20422;-87
2023/11/19 08:52:37;;;;;;;31.73;5.93;;;;;;;10.42;100.00;99654.69;5032862;28;20029;-87
2023/11/19 08:55:05;;;;;;;32.58;6.18;;;;;;;10.39;100.00;99649.75;5032497;28;20029;-88
2023/11/19 08:57:30;;;;;;;32.53;4.22;;;;;;;10.43;100.00;99646.00;5032585;28;20045;-88
2023/11/19 08:59:56;;;;;;;31.90;5.40;;;;;;;10.52;100.00;99644.53;5032666;28;20029;-88
2023/11/19 09:02:21;;;;;;;35.17;5.05;;;;;;;10.50;100.00;99652.38;5032099;28;20022;-87
2023/11/19 09:04:46;;;;;;;31.90;5.72;;;;;;;10.48;100.00;99640.50;5032222;28;20440;-88
2023/11/19 09:07:12;;;;;;;42.10;6.30;;;;;;;10.49;100.00;99644.75;5032566;28;20025;-88
2023/11/19 09:09:38;;;;;;;23.75;3.92;;;;;;;10.54;100.00;99652.19;5032666;28;20033;-88
2023/11/19 09:12:03;;;;;;;32.50;5.15;;;;;;;10.47;100.00;99649.19;5032303;28;20017;-88
2023/11/19 09:14:30;;;;;;;35.80;5.50;;;;;;;10.52;100.00;99644.53;5032141;28;20099;-88
2023/11/19 09:16:56;;;;;;;38.45;5.35;;;;;;;10.52;100.00;99648.88;5030460;28;20047;-88
2023/11/19 09:19:21;;;;;;;33.55;5.25;;;;;;;10.52;100.00;99634.22;5032099;28;20484;-88
2023/11/19 09:21:49;;;;;;;35.00;6.28;;;;;;;10.64;100.00;99628.19;5030759;28;20549;-88
2023/11/19 09:24:15;;;;;;;32.28;6.10;;;;;;;10.70;100.00;99645.00;5032219;28;20033;-88
2023/11/19 09:26:41;;;;;;;24.67;4.18;;;;;;;10.66;100.00;99626.34;5032334;28;20071;-88
2023/11/19 09:29:09;;;;;;;26.15;3.67;;;;;;;10.73;100.00;99633.63;5032053;28;20026;-88
2023/11/19 09:31:35;;;;;;;25.77;4.65;;;;;;;10.79;100.00;99640.94;5031688;28;20518;-87
2023/11/19 09:34:01;;;;;;;21.65;5.05;;;;;;;10.81;100.00;99634.75;5031255;28;20060;-88
2023/11/19 09:36:26;;;;;;;25.75;4.03;;;;;;;10.79;100.00;99630.63;5031660;28;20087;-87
2023/11/19 09:38:51;;;;;;;23.42;3.75;;;;;;;10.88;100.00;99629.97;5031846;28;20026;-87
2023/11/19 09:41:19;;;;;;;25.50;4.70;;;;;;;10.95;100.00;99636.34;5031660;28;20479;-88
2023/11/19 09:43:45;;;;;;;26.67;4.65;;;;;;;11.07;100.00;99645.78;5031601;28;20033;-87
2023/11/19 09:46:12;;;;;;;29.20;5.28;;;;;;;11.09;100.00;99633.56;5031870;28;20378;-87
2023/11/19 09:48:39;;;;;;;25.70;3.80;;;;;;;11.04;100.00;99638.25;5031037;28;20033;-88
2023/11/19 09:51:06;;;;;;;22.13;3.63;;;;;;;11.03;100.00;99634.03;5031611;28;20160;-88
2023/11/19 09:53:32;;;;;;;28.08;5.50;;;;;;;11.10;100.00;99631.84;5029906;28;20026;-88
2023/11/19 09:56:00;;;;;;;24.10;3.58;;;;;;;11.16;100.00;99633.13;5031498;28;20029;-88
2023/11/19 09:58:26;;;;;;;19.08;2.47;;;;;;;11.13;100.00;99645.34;5031721;28;20037;-87
2023/11/19 10:00:52;;;;;;;13.40;2.92;;;;;;;11.16;100.00;99627.97;5031365;28;20391;-88
2023/11/19 10:03:17;;;;;;;21.88;3.65;;;;;;;11.16;100.00;99646.06;5031325;28;20025;-88
2023/11/19 10:05:43;;;;;;;19.15;3.17;;;;;;;11.13;100.00;99647.91;5031627;28;20025;-88
2023/11/19 10:08:10;;;;;;;14.27;3.33;;;;;;;11.23;100.00;99644.69;5031495;28;20502;-87
2023/11/19 10:10:36;;;;;;;12.40;2.00;;;;;;;11.19;100.00;99636.31;5031711;28;20056;-88
2023/11/19 10:13:01;;;;;;;16.02;2.58;;;;;;;11.19;100.00;99643.25;5031366;28;20053;-87
2023/11/19 10:15:27;;;;;;;22.33;3.25;;;;;;;11.14;100.00;99636.66;5031551;28;20025;-87
2023/11/19 10:17:56;;;;;;;22.05;3.25;;;;;;;11.13;100.00;99635.00;5030933;28;20067;-88
2023/11/19 10:20:22;;;;;;;21.23;4.28;;;;;;;11.19;100.00;99648.41;5031599;28;20030;-88
2023/11/19 10:22:47;;;;;;;23.52;4.88;;;;;;;11.17;100.00;99640.78;5031458;28;20022;-88
2023/11/19 10:25:23;;;;;;;20.05;3.90;;;;;;;11.09;100.00;99649.06;5031399;28;20440;-88
2023/11/19 10:27:50;;;;;;;18.73;3.25;;;;;;;11.05;100.00;99642.50;5031420;28;20030;-88
2023/11/19 10:30:26;;;;;;;9.25;2.58;;;;;;;11.13;100.00;99640.16;5031342;28;20017;-88
2023/11/19 10:33:19;;;;;;;21.50;4.43;;;;;;;11.00;100.00;99633.41;5030751;28;20032;-88
2023/11/19 10:35:59;;;;;;;23.75;4.05;;;;;;;11.16;100.00;99638.31;5031474;28;20392;-88
2023/11/19 10:38:25;;;;;;;17.50;2.63;;;;;;;11.06;100.00;99644.13;5031196;28;20025;-88
2023/11/19 10:40:51;;;;;;;19.23;3.45;;;;;;;11.08;100.00;99642.25;5031340;28;20225;-88
2023/11/19 10:43:24;;;;;;;24.23;3.20;;;;;;;11.15;100.00;99642.66;5031435;28;20025;-88
2023/11/19 10:45:50;;;;;;;28.80;4.05;;;;;;;11.16;100.00;99651.22;5031122;28;20030;-88
2023/11/19 10:48:16;;;;;;;15.73;3.30;;;;;;;11.28;100.00;99642.56;5030627;28;20092;-88
2023/11/19 10:50:44;;;;;;;20.42;3.78;;;;;;;11.28;100.00;99632.25;5030123;28;20021;-88
2023/11/19 10:53:18;;;;;;;20.77;3.92;;;;;;;11.20;100.00;99640.56;5030799;28;20029;-88
2023/11/19 10:55:47;;;;;;;18.13;4.10;;;;;;;11.36;100.00;99635.06;5031053;28;20409;-88
2023/11/19 10:58:16;;;;;;;18.27;3.38;;;;;;;11.38;100.00;99624.63;5031145;28;20029;-88
2023/11/19 11:00:53;;;;;;;29.30;5.18;;;;;;;11.37;100.00;99626.41;5029541;28;20026;-88
2023/11/19 11:03:20;;;;;;;15.45;2.72;;;;;;;11.46;100.00;99622.31;5030196;28;20036;-87
2023/11/19 11:05:47;;;;;;;18.48;3.20;;;;;;;11.44;100.00;99625.03;5034446;28;20053;-88
2023/11/19 11:08:13;;;;;;;14.57;2.67;;;;;;;11.48;100.00;99618.66;5033602;28;20470;-87
2023/11/19 11:10:47;;;;;;;12.77;2.53;;;;;;;11.44;100.00;99611.28;5034386;28;20100;-88
2023/11/19 11:13:13;;;;;;;17.38;2.50;;;;;;;11.40;100.00;99626.16;5033149;28;20400;-88
2023/11/19 11:15:40;;;;;;;16.45;2.42;;;;;;;11.43;100.00;99625.13;5034407;28;20033;-88